sensor_id;sensor_type;location;lat;lon;timestamp;P1;durP1;ratioP1;P2;durP2;ratioP2
79371;SDS011;68914;51.262;6.802;2023-09-30T00:00:22;14.80;;;5.83;;
79371;SDS011;68914;51.262;6.802;2023-09-30T00:01:23;18.52;;;5.50;;
79371;SDS011;68914;51.262;6.802;2023-09-30T00:02:23;16.37;;;6.20;;
79371;SDS011;68914;51.262;6.802;2023-09-30T00:03:24;14.68;;;5.35;;
79371;SDS011;68914;51.262;6.802;2023-09-30T00:04:28;15.07;;;5.25;;
79371;SDS011;68914;51.262;6.802;2023-09-30T00:05:30;12.98;;;5.15;;
79371;SDS011;68914;51.262;6.802;2023-09-30T00:06:30;16.07;;;5.33;;
79371;SDS011;68914;51.262;6.802;2023-09-30T00:07:31;15.93;;;5.18;;
79371;SDS011;68914;51.262;6.802;2023-09-30T00:08:31;13.67;;;5.27;;
79371;SDS011;68914;51.262;6.802;2023-09-30T00:09:32;15.00;;;5.00;;
79371;SDS011;68914;51.262;6.802;2023-09-30T00:10:33;15.43;;;5.40;;
79371;SDS011;68914;51.262;6.802;2023-09-30T00:11:33;15.20;;;5.20;;
79371;SDS011;68914;51.262;6.802;2023-09-30T00:12:35;14.40;;;5.32;;
79371;SDS011;68914;51.262;6.802;2023-09-30T00:13:35;15.60;;;5.30;;
79371;SDS011;68914;51.262;6.802;2023-09-30T00:14:36;12.88;;;4.95;;
79371;SDS011;68914;51.262;6.802;2023-09-30T00:15:38;14.27;;;5.07;;
79371;SDS011;68914;51.262;6.802;2023-09-30T00:16:38;15.80;;;5.43;;
79371;SDS011;68914;51.262;6.802;2023-09-30T00:17:39;11.65;;;4.72;;
79371;SDS011;68914;51.262;6.802;2023-09-30T00:18:40;18.73;;;5.72;;
79371;SDS011;68914;51.262;6.802;2023-09-30T00:19:43;14.97;;;5.83;;
79371;SDS011;68914;51.262;6.802;2023-09-30T00:20:45;15.52;;;5.35;;
79371;SDS011;68914;51.262;6.802;2023-09-30T00:21:49;16.25;;;5.40;;
79371;SDS011;68914;51.262;6.802;2023-09-30T00:22:50;14.77;;;5.20;;
79371;SDS011;68914;51.262;6.802;2023-09-30T00:23:50;16.20;;;5.15;;
79371;SDS011;68914;51.262;6.802;2023-09-30T00:24:51;15.97;;;5.10;;
79371;SDS011;68914;51.262;6.802;2023-09-30T00:25:51;14.93;;;5.32;;
79371;SDS011;68914;51.262;6.802;2023-09-30T00:26:52;14.03;;;5.10;;
79371;SDS011;68914;51.262;6.802;2023-09-30T00:27:56;13.55;;;5.10;;
79371;SDS011;68914;51.262;6.802;2023-09-30T00:28:57;13.48;;;5.05;;
79371;SDS011;68914;51.262;6.802;2023-09-30T00:29:58;12.00;;;4.80;;
79371;SDS011;68914;51.262;6.802;2023-09-30T00:30:59;16.30;;;5.20;;
79371;SDS011;68914;51.262;6.802;2023-09-30T00:31:59;13.65;;;5.18;;
79371;SDS011;68914;51.262;6.802;2023-09-30T00:33:00;14.47;;;4.37;;
79371;SDS011;68914;51.262;6.802;2023-09-30T00:34:01;13.00;;;4.82;;
79371;SDS011;68914;51.262;6.802;2023-09-30T00:35:02;13.10;;;4.75;;
79371;SDS011;68914;51.262;6.802;2023-09-30T00:36:09;14.90;;;4.60;;
79371;SDS011;68914;51.262;6.802;2023-09-30T00:37:12;12.47;;;4.87;;
79371;SDS011;68914;51.262;6.802;2023-09-30T00:38:13;13.43;;;4.43;;
79371;SDS011;68914;51.262;6.802;2023-09-30T00:39:15;17.27;;;5.47;;
79371;SDS011;68914;51.262;6.802;2023-09-30T00:40:18;12.23;;;4.40;;
79371;SDS011;68914;51.262;6.802;2023-09-30T00:41:19;14.38;;;4.60;;
79371;SDS011;68914;51.262;6.802;2023-09-30T00:42:22;11.60;;;4.40;;
79371;SDS011;68914;51.262;6.802;2023-09-30T00:43:23;14.87;;;4.70;;
79371;SDS011;68914;51.262;6.802;2023-09-30T00:44:26;19.35;;;4.80;;
79371;SDS011;68914;51.262;6.802;2023-09-30T00:45:27;16.90;;;4.75;;
79371;SDS011;68914;51.262;6.802;2023-09-30T00:46:29;11.45;;;4.10;;
79371;SDS011;68914;51.262;6.802;2023-09-30T00:47:31;15.80;;;4.85;;
79371;SDS011;68914;51.262;6.802;2023-09-30T00:48:33;16.70;;;4.70;;
79371;SDS011;68914;51.262;6.802;2023-09-30T00:49:35;13.98;;;4.25;;
79371;SDS011;68914;51.262;6.802;2023-09-30T00:50:35;12.18;;;4.28;;
79371;SDS011;68914;51.262;6.802;2023-09-30T00:51:36;11.80;;;4.30;;
79371;SDS011;68914;51.262;6.802;2023-09-30T00:52:38;12.98;;;4.20;;
79371;SDS011;68914;51.262;6.802;2023-09-30T00:53:39;12.57;;;4.55;;
79371;SDS011;68914;51.262;6.802;2023-09-30T00:54:40;12.82;;;4.07;;
79371;SDS011;68914;51.262;6.802;2023-09-30T00:55:41;12.93;;;4.47;;
79371;SDS011;68914;51.262;6.802;2023-09-30T00:56:46;12.95;;;4.43;;
79371;SDS011;68914;51.262;6.802;2023-09-30T00:57:47;12.07;;;4.73;;
79371;SDS011;68914;51.262;6.802;2023-09-30T00:58:48;12.90;;;4.25;;
79371;SDS011;68914;51.262;6.802;2023-09-30T00:59:51;16.42;;;4.80;;
79371;SDS011;68914;51.262;6.802;2023-09-30T01:00:52;11.75;;;4.18;;
79371;SDS011;68914;51.262;6.802;2023-09-30T01:01:54;12.13;;;4.55;;
79371;SDS011;68914;51.262;6.802;2023-09-30T01:02:57;11.75;;;4.35;;
79371;SDS011;68914;51.262;6.802;2023-09-30T01:04:06;13.07;;;4.90;;
79371;SDS011;68914;51.262;6.802;2023-09-30T01:05:08;12.38;;;4.28;;
79371;SDS011;68914;51.262;6.802;2023-09-30T01:06:09;15.27;;;4.38;;
79371;SDS011;68914;51.262;6.802;2023-09-30T01:07:10;13.57;;;4.30;;
79371;SDS011;68914;51.262;6.802;2023-09-30T01:08:11;14.60;;;4.40;;
79371;SDS011;68914;51.262;6.802;2023-09-30T01:09:12;12.03;;;4.33;;
79371;SDS011;68914;51.262;6.802;2023-09-30T01:10:13;14.20;;;4.70;;
79371;SDS011;68914;51.262;6.802;2023-09-30T01:11:14;11.48;;;4.00;;
79371;SDS011;68914;51.262;6.802;2023-09-30T01:12:15;14.55;;;5.00;;
79371;SDS011;68914;51.262;6.802;2023-09-30T01:13:16;12.25;;;4.13;;
79371;SDS011;68914;51.262;6.802;2023-09-30T01:14:30;12.03;;;4.57;;
79371;SDS011;68914;51.262;6.802;2023-09-30T01:16:49;16.42;;;4.78;;
79371;SDS011;68914;51.262;6.802;2023-09-30T01:17:51;14.93;;;4.72;;
79371;SDS011;68914;51.262;6.802;2023-09-30T01:18:51;15.32;;;4.53;;
79371;SDS011;68914;51.262;6.802;2023-09-30T01:19:52;14.63;;;4.67;;
79371;SDS011;68914;51.262;6.802;2023-09-30T01:20:52;15.82;;;4.85;;
79371;SDS011;68914;51.262;6.802;2023-09-30T01:21:55;12.63;;;4.32;;
79371;SDS011;68914;51.262;6.802;2023-09-30T01:23:06;14.63;;;4.78;;
79371;SDS011;68914;51.262;6.802;2023-09-30T01:24:07;14.43;;;4.63;;
79371;SDS011;68914;51.262;6.802;2023-09-30T01:25:08;17.88;;;5.32;;
79371;SDS011;68914;51.262;6.802;2023-09-30T01:26:12;13.35;;;4.85;;
79371;SDS011;68914;51.262;6.802;2023-09-30T01:27:13;14.50;;;5.00;;
79371;SDS011;68914;51.262;6.802;2023-09-30T01:28:16;12.65;;;4.53;;
79371;SDS011;68914;51.262;6.802;2023-09-30T01:29:17;13.35;;;4.63;;
79371;SDS011;68914;51.262;6.802;2023-09-30T01:30:19;16.03;;;4.87;;
79371;SDS011;68914;51.262;6.802;2023-09-30T01:31:20;17.23;;;4.72;;
79371;SDS011;68914;51.262;6.802;2023-09-30T01:32:20;11.82;;;4.50;;
79371;SDS011;68914;51.262;6.802;2023-09-30T01:33:22;14.53;;;4.70;;
79371;SDS011;68914;51.262;6.802;2023-09-30T01:34:23;16.63;;;5.07;;
79371;SDS011;68914;51.262;6.802;2023-09-30T01:35:24;15.15;;;5.00;;
79371;SDS011;68914;51.262;6.802;2023-09-30T01:36:27;13.52;;;5.07;;
79371;SDS011;68914;51.262;6.802;2023-09-30T01:37:28;16.98;;;5.40;;
79371;SDS011;68914;51.262;6.802;2023-09-30T01:38:29;13.90;;;5.07;;
79371;SDS011;68914;51.262;6.802;2023-09-30T01:39:30;17.33;;;5.27;;
79371;SDS011;68914;51.262;6.802;2023-09-30T01:40:31;13.55;;;4.93;;
79371;SDS011;68914;51.262;6.802;2023-09-30T01:41:31;17.67;;;5.43;;
79371;SDS011;68914;51.262;6.802;2023-09-30T01:42:32;14.15;;;5.50;;
79371;SDS011;68914;51.262;6.802;2023-09-30T01:43:34;17.15;;;5.22;;
79371;SDS011;68914;51.262;6.802;2023-09-30T01:44:36;17.87;;;5.10;;
79371;SDS011;68914;51.262;6.802;2023-09-30T01:45:37;15.43;;;5.25;;
79371;SDS011;68914;51.262;6.802;2023-09-30T01:46:38;15.03;;;4.93;;
79371;SDS011;68914;51.262;6.802;2023-09-30T01:47:38;15.67;;;5.00;;
79371;SDS011;68914;51.262;6.802;2023-09-30T01:48:39;16.27;;;5.20;;
79371;SDS011;68914;51.262;6.802;2023-09-30T01:49:39;15.47;;;5.40;;
79371;SDS011;68914;51.262;6.802;2023-09-30T01:50:40;16.33;;;5.38;;
79371;SDS011;68914;51.262;6.802;2023-09-30T01:51:41;14.07;;;4.70;;
79371;SDS011;68914;51.262;6.802;2023-09-30T01:52:41;13.23;;;5.07;;
79371;SDS011;68914;51.262;6.802;2023-09-30T01:53:42;16.95;;;4.80;;
79371;SDS011;68914;51.262;6.802;2023-09-30T01:54:43;15.53;;;5.03;;
79371;SDS011;68914;51.262;6.802;2023-09-30T01:55:44;16.90;;;4.65;;
79371;SDS011;68914;51.262;6.802;2023-09-30T01:56:45;18.13;;;5.43;;
79371;SDS011;68914;51.262;6.802;2023-09-30T01:57:45;18.15;;;5.20;;
79371;SDS011;68914;51.262;6.802;2023-09-30T01:58:46;16.00;;;5.20;;
79371;SDS011;68914;51.262;6.802;2023-09-30T01:59:47;13.87;;;4.50;;
79371;SDS011;68914;51.262;6.802;2023-09-30T02:00:51;15.85;;;5.22;;
79371;SDS011;68914;51.262;6.802;2023-09-30T02:01:52;14.98;;;4.90;;
79371;SDS011;68914;51.262;6.802;2023-09-30T02:02:53;21.63;;;5.83;;
79371;SDS011;68914;51.262;6.802;2023-09-30T02:03:57;15.13;;;5.22;;
79371;SDS011;68914;51.262;6.802;2023-09-30T02:04:57;18.17;;;5.07;;
79371;SDS011;68914;51.262;6.802;2023-09-30T02:05:58;15.45;;;4.97;;
79371;SDS011;68914;51.262;6.802;2023-09-30T02:06:59;15.00;;;4.93;;
79371;SDS011;68914;51.262;6.802;2023-09-30T02:08:01;16.08;;;4.88;;
79371;SDS011;68914;51.262;6.802;2023-09-30T02:09:06;17.92;;;5.18;;
79371;SDS011;68914;51.262;6.802;2023-09-30T02:10:09;13.57;;;5.10;;
79371;SDS011;68914;51.262;6.802;2023-09-30T02:11:10;13.88;;;4.65;;
79371;SDS011;68914;51.262;6.802;2023-09-30T02:12:13;15.63;;;5.05;;
79371;SDS011;68914;51.262;6.802;2023-09-30T02:13:14;15.83;;;4.90;;
79371;SDS011;68914;51.262;6.802;2023-09-30T02:14:15;13.48;;;4.70;;
79371;SDS011;68914;51.262;6.802;2023-09-30T02:15:16;16.02;;;5.10;;
79371;SDS011;68914;51.262;6.802;2023-09-30T02:16:16;15.50;;;5.07;;
79371;SDS011;68914;51.262;6.802;2023-09-30T02:17:17;15.40;;;5.20;;
79371;SDS011;68914;51.262;6.802;2023-09-30T02:18:18;16.67;;;4.97;;
79371;SDS011;68914;51.262;6.802;2023-09-30T02:19:21;15.80;;;5.22;;
79371;SDS011;68914;51.262;6.802;2023-09-30T02:20:22;16.13;;;5.20;;
79371;SDS011;68914;51.262;6.802;2023-09-30T02:21:25;16.48;;;5.15;;
79371;SDS011;68914;51.262;6.802;2023-09-30T02:22:27;14.32;;;5.03;;
79371;SDS011;68914;51.262;6.802;2023-09-30T02:23:28;13.40;;;4.85;;
79371;SDS011;68914;51.262;6.802;2023-09-30T02:24:29;15.90;;;5.20;;
79371;SDS011;68914;51.262;6.802;2023-09-30T02:25:30;15.77;;;5.38;;
79371;SDS011;68914;51.262;6.802;2023-09-30T02:26:32;17.45;;;4.95;;
79371;SDS011;68914;51.262;6.802;2023-09-30T02:27:33;13.40;;;5.00;;
79371;SDS011;68914;51.262;6.802;2023-09-30T02:28:34;15.95;;;5.40;;
79371;SDS011;68914;51.262;6.802;2023-09-30T02:29:35;12.75;;;4.90;;
79371;SDS011;68914;51.262;6.802;2023-09-30T02:30:38;14.23;;;5.13;;
79371;SDS011;68914;51.262;6.802;2023-09-30T02:31:38;19.67;;;5.07;;
79371;SDS011;68914;51.262;6.802;2023-09-30T02:32:42;15.73;;;5.10;;
79371;SDS011;68914;51.262;6.802;2023-09-30T02:33:43;15.50;;;5.03;;
79371;SDS011;68914;51.262;6.802;2023-09-30T02:34:44;15.40;;;5.00;;
79371;SDS011;68914;51.262;6.802;2023-09-30T02:35:45;16.27;;;4.85;;
79371;SDS011;68914;51.262;6.802;2023-09-30T02:36:46;14.48;;;4.90;;
79371;SDS011;68914;51.262;6.802;2023-09-30T02:37:46;14.70;;;4.97;;
79371;SDS011;68914;51.262;6.802;2023-09-30T02:38:47;15.27;;;5.30;;
79371;SDS011;68914;51.262;6.802;2023-09-30T02:39:50;13.57;;;5.38;;
79371;SDS011;68914;51.262;6.802;2023-09-30T02:40:51;15.52;;;5.43;;
79371;SDS011;68914;51.262;6.802;2023-09-30T02:41:52;16.83;;;5.55;;
79371;SDS011;68914;51.262;6.802;2023-09-30T02:42:52;15.30;;;5.75;;
79371;SDS011;68914;51.262;6.802;2023-09-30T02:43:54;16.23;;;5.38;;
79371;SDS011;68914;51.262;6.802;2023-09-30T02:44:54;16.07;;;5.30;;
79371;SDS011;68914;51.262;6.802;2023-09-30T02:45:55;16.52;;;5.15;;
79371;SDS011;68914;51.262;6.802;2023-09-30T02:46:56;14.07;;;5.27;;
79371;SDS011;68914;51.262;6.802;2023-09-30T02:47:56;15.82;;;5.10;;
79371;SDS011;68914;51.262;6.802;2023-09-30T02:48:57;15.90;;;5.50;;
79371;SDS011;68914;51.262;6.802;2023-09-30T02:49:58;15.52;;;5.22;;
79371;SDS011;68914;51.262;6.802;2023-09-30T02:50:58;16.23;;;5.27;;
79371;SDS011;68914;51.262;6.802;2023-09-30T02:51:59;17.25;;;5.20;;
79371;SDS011;68914;51.262;6.802;2023-09-30T02:53:00;16.65;;;5.45;;
79371;SDS011;68914;51.262;6.802;2023-09-30T02:55:03;16.92;;;5.30;;
79371;SDS011;68914;51.262;6.802;2023-09-30T02:56:03;18.52;;;5.43;;
79371;SDS011;68914;51.262;6.802;2023-09-30T02:57:05;18.38;;;5.60;;
79371;SDS011;68914;51.262;6.802;2023-09-30T02:58:08;16.85;;;5.40;;
79371;SDS011;68914;51.262;6.802;2023-09-30T02:59:09;13.48;;;5.00;;
79371;SDS011;68914;51.262;6.802;2023-09-30T03:00:10;15.47;;;4.87;;
79371;SDS011;68914;51.262;6.802;2023-09-30T03:01:23;15.02;;;5.18;;
79371;SDS011;68914;51.262;6.802;2023-09-30T03:02:26;19.40;;;5.30;;
79371;SDS011;68914;51.262;6.802;2023-09-30T03:03:27;14.25;;;5.35;;
79371;SDS011;68914;51.262;6.802;2023-09-30T03:04:30;21.17;;;5.93;;
79371;SDS011;68914;51.262;6.802;2023-09-30T03:05:31;16.55;;;5.57;;
79371;SDS011;68914;51.262;6.802;2023-09-30T03:06:33;13.10;;;5.18;;
79371;SDS011;68914;51.262;6.802;2023-09-30T03:07:37;15.73;;;5.50;;
79371;SDS011;68914;51.262;6.802;2023-09-30T03:08:38;15.55;;;5.80;;
79371;SDS011;68914;51.262;6.802;2023-09-30T03:09:39;18.23;;;5.30;;
79371;SDS011;68914;51.262;6.802;2023-09-30T03:10:39;15.27;;;5.97;;
79371;SDS011;68914;51.262;6.802;2023-09-30T03:11:40;15.02;;;5.50;;
79371;SDS011;68914;51.262;6.802;2023-09-30T03:12:42;13.52;;;5.28;;
79371;SDS011;68914;51.262;6.802;2023-09-30T03:13:43;20.10;;;5.53;;
79371;SDS011;68914;51.262;6.802;2023-09-30T03:14:44;16.08;;;5.38;;
79371;SDS011;68914;51.262;6.802;2023-09-30T03:15:47;16.77;;;5.38;;
79371;SDS011;68914;51.262;6.802;2023-09-30T03:16:52;16.88;;;5.47;;
79371;SDS011;68914;51.262;6.802;2023-09-30T03:17:52;15.03;;;4.97;;
79371;SDS011;68914;51.262;6.802;2023-09-30T03:18:53;17.95;;;6.28;;
79371;SDS011;68914;51.262;6.802;2023-09-30T03:19:56;17.77;;;5.30;;
79371;SDS011;68914;51.262;6.802;2023-09-30T03:21:01;14.70;;;5.47;;
79371;SDS011;68914;51.262;6.802;2023-09-30T03:22:02;18.40;;;5.60;;
79371;SDS011;68914;51.262;6.802;2023-09-30T03:23:05;14.20;;;5.25;;
79371;SDS011;68914;51.262;6.802;2023-09-30T03:24:06;16.83;;;5.53;;
79371;SDS011;68914;51.262;6.802;2023-09-30T03:25:09;16.17;;;5.47;;
79371;SDS011;68914;51.262;6.802;2023-09-30T03:26:11;15.23;;;5.38;;
79371;SDS011;68914;51.262;6.802;2023-09-30T03:27:12;21.50;;;5.63;;
79371;SDS011;68914;51.262;6.802;2023-09-30T03:28:12;15.55;;;5.53;;
79371;SDS011;68914;51.262;6.802;2023-09-30T03:29:14;17.27;;;5.65;;
79371;SDS011;68914;51.262;6.802;2023-09-30T03:30:15;18.17;;;5.60;;
79371;SDS011;68914;51.262;6.802;2023-09-30T03:31:20;17.85;;;5.13;;
79371;SDS011;68914;51.262;6.802;2023-09-30T03:32:20;16.70;;;5.40;;
79371;SDS011;68914;51.262;6.802;2023-09-30T03:33:21;16.53;;;5.60;;
79371;SDS011;68914;51.262;6.802;2023-09-30T03:34:22;14.48;;;5.20;;
79371;SDS011;68914;51.262;6.802;2023-09-30T03:35:22;17.27;;;5.72;;
79371;SDS011;68914;51.262;6.802;2023-09-30T03:36:24;17.20;;;5.97;;
79371;SDS011;68914;51.262;6.802;2023-09-30T03:37:25;19.10;;;5.65;;
79371;SDS011;68914;51.262;6.802;2023-09-30T03:38:27;17.95;;;5.68;;
79371;SDS011;68914;51.262;6.802;2023-09-30T03:39:27;17.20;;;5.40;;
79371;SDS011;68914;51.262;6.802;2023-09-30T03:40:28;18.50;;;6.60;;
79371;SDS011;68914;51.262;6.802;2023-09-30T03:41:33;15.70;;;5.50;;
79371;SDS011;68914;51.262;6.802;2023-09-30T03:42:37;16.95;;;5.28;;
79371;SDS011;68914;51.262;6.802;2023-09-30T03:43:39;16.80;;;5.65;;
79371;SDS011;68914;51.262;6.802;2023-09-30T03:44:46;15.27;;;5.70;;
79371;SDS011;68914;51.262;6.802;2023-09-30T03:45:46;15.20;;;5.68;;
79371;SDS011;68914;51.262;6.802;2023-09-30T03:46:47;17.05;;;6.20;;
79371;SDS011;68914;51.262;6.802;2023-09-30T03:47:48;18.23;;;6.07;;
79371;SDS011;68914;51.262;6.802;2023-09-30T03:48:51;19.02;;;6.20;;
79371;SDS011;68914;51.262;6.802;2023-09-30T03:49:52;18.02;;;6.35;;
79371;SDS011;68914;51.262;6.802;2023-09-30T03:50:54;20.95;;;6.07;;
79371;SDS011;68914;51.262;6.802;2023-09-30T03:51:54;17.97;;;6.30;;
79371;SDS011;68914;51.262;6.802;2023-09-30T03:53:05;17.83;;;6.25;;
79371;SDS011;68914;51.262;6.802;2023-09-30T03:54:07;15.10;;;5.95;;
79371;SDS011;68914;51.262;6.802;2023-09-30T03:55:09;17.75;;;6.40;;
79371;SDS011;68914;51.262;6.802;2023-09-30T03:56:12;16.88;;;5.80;;
79371;SDS011;68914;51.262;6.802;2023-09-30T03:57:13;16.80;;;6.20;;
79371;SDS011;68914;51.262;6.802;2023-09-30T03:58:16;21.33;;;5.68;;
79371;SDS011;68914;51.262;6.802;2023-09-30T03:59:18;17.17;;;6.13;;
79371;SDS011;68914;51.262;6.802;2023-09-30T04:00:22;18.88;;;6.50;;
79371;SDS011;68914;51.262;6.802;2023-09-30T04:01:24;18.17;;;6.22;;
79371;SDS011;68914;51.262;6.802;2023-09-30T04:02:26;16.33;;;6.22;;
79371;SDS011;68914;51.262;6.802;2023-09-30T04:03:27;18.77;;;5.90;;
79371;SDS011;68914;51.262;6.802;2023-09-30T04:04:28;18.25;;;6.60;;
79371;SDS011;68914;51.262;6.802;2023-09-30T04:05:30;17.27;;;6.78;;
79371;SDS011;68914;51.262;6.802;2023-09-30T04:06:32;17.48;;;6.47;;
79371;SDS011;68914;51.262;6.802;2023-09-30T04:07:33;17.33;;;6.23;;
79371;SDS011;68914;51.262;6.802;2023-09-30T04:08:36;16.45;;;6.32;;
79371;SDS011;68914;51.262;6.802;2023-09-30T04:09:37;20.55;;;6.50;;
79371;SDS011;68914;51.262;6.802;2023-09-30T04:10:38;18.60;;;5.83;;
79371;SDS011;68914;51.262;6.802;2023-09-30T04:11:38;15.35;;;5.90;;
79371;SDS011;68914;51.262;6.802;2023-09-30T04:12:39;16.52;;;6.22;;
79371;SDS011;68914;51.262;6.802;2023-09-30T04:13:40;16.63;;;6.27;;
79371;SDS011;68914;51.262;6.802;2023-09-30T04:14:43;17.10;;;6.53;;
79371;SDS011;68914;51.262;6.802;2023-09-30T04:15:44;14.80;;;5.50;;
79371;SDS011;68914;51.262;6.802;2023-09-30T04:16:45;18.75;;;5.97;;
79371;SDS011;68914;51.262;6.802;2023-09-30T04:17:46;16.43;;;6.53;;
79371;SDS011;68914;51.262;6.802;2023-09-30T04:18:47;17.75;;;6.43;;
79371;SDS011;68914;51.262;6.802;2023-09-30T04:19:50;20.58;;;6.38;;
79371;SDS011;68914;51.262;6.802;2023-09-30T04:20:52;16.38;;;6.40;;
79371;SDS011;68914;51.262;6.802;2023-09-30T04:21:53;15.75;;;5.93;;
79371;SDS011;68914;51.262;6.802;2023-09-30T04:22:53;17.33;;;5.63;;
79371;SDS011;68914;51.262;6.802;2023-09-30T04:23:57;18.27;;;5.93;;
79371;SDS011;68914;51.262;6.802;2023-09-30T04:24:58;16.10;;;6.13;;
79371;SDS011;68914;51.262;6.802;2023-09-30T04:25:58;16.07;;;5.63;;
79371;SDS011;68914;51.262;6.802;2023-09-30T04:26:59;14.73;;;5.72;;
79371;SDS011;68914;51.262;6.802;2023-09-30T04:28:03;19.85;;;5.97;;
79371;SDS011;68914;51.262;6.802;2023-09-30T04:29:04;15.75;;;6.03;;
79371;SDS011;68914;51.262;6.802;2023-09-30T04:30:05;15.20;;;5.70;;
79371;SDS011;68914;51.262;6.802;2023-09-30T04:31:09;16.02;;;6.20;;
79371;SDS011;68914;51.262;6.802;2023-09-30T04:32:10;17.63;;;5.50;;
79371;SDS011;68914;51.262;6.802;2023-09-30T04:33:10;18.60;;;5.85;;
79371;SDS011;68914;51.262;6.802;2023-09-30T04:34:13;19.83;;;6.05;;
79371;SDS011;68914;51.262;6.802;2023-09-30T04:35:13;16.33;;;5.97;;
79371;SDS011;68914;51.262;6.802;2023-09-30T04:36:15;14.80;;;5.55;;
79371;SDS011;68914;51.262;6.802;2023-09-30T04:37:16;19.60;;;5.85;;
79371;SDS011;68914;51.262;6.802;2023-09-30T04:38:16;17.30;;;5.60;;
79371;SDS011;68914;51.262;6.802;2023-09-30T04:39:17;17.33;;;6.18;;
79371;SDS011;68914;51.262;6.802;2023-09-30T04:40:18;14.90;;;5.50;;
79371;SDS011;68914;51.262;6.802;2023-09-30T04:41:22;13.48;;;5.72;;
79371;SDS011;68914;51.262;6.802;2023-09-30T04:42:22;18.07;;;6.27;;
79371;SDS011;68914;51.262;6.802;2023-09-30T04:43:25;17.83;;;5.50;;
79371;SDS011;68914;51.262;6.802;2023-09-30T04:44:29;16.10;;;5.90;;
79371;SDS011;68914;51.262;6.802;2023-09-30T04:45:30;17.90;;;5.90;;
79371;SDS011;68914;51.262;6.802;2023-09-30T04:46:30;17.33;;;6.22;;
79371;SDS011;68914;51.262;6.802;2023-09-30T04:47:31;17.47;;;6.07;;
79371;SDS011;68914;51.262;6.802;2023-09-30T04:48:32;17.58;;;6.60;;
79371;SDS011;68914;51.262;6.802;2023-09-30T04:49:33;15.10;;;6.35;;
79371;SDS011;68914;51.262;6.802;2023-09-30T04:50:36;19.08;;;6.22;;
79371;SDS011;68914;51.262;6.802;2023-09-30T04:51:39;18.17;;;6.07;;
79371;SDS011;68914;51.262;6.802;2023-09-30T04:52:39;16.93;;;5.70;;
79371;SDS011;68914;51.262;6.802;2023-09-30T04:53:40;15.07;;;5.72;;
79371;SDS011;68914;51.262;6.802;2023-09-30T04:54:41;17.55;;;6.03;;
79371;SDS011;68914;51.262;6.802;2023-09-30T04:55:42;19.37;;;5.70;;
79371;SDS011;68914;51.262;6.802;2023-09-30T04:56:42;16.48;;;6.00;;
79371;SDS011;68914;51.262;6.802;2023-09-30T04:57:43;20.13;;;6.13;;
79371;SDS011;68914;51.262;6.802;2023-09-30T04:58:47;19.42;;;6.57;;
79371;SDS011;68914;51.262;6.802;2023-09-30T04:59:48;15.88;;;5.85;;
79371;SDS011;68914;51.262;6.802;2023-09-30T05:00:49;20.10;;;6.53;;
79371;SDS011;68914;51.262;6.802;2023-09-30T05:01:49;19.40;;;6.10;;
79371;SDS011;68914;51.262;6.802;2023-09-30T05:02:51;15.43;;;5.93;;
79371;SDS011;68914;51.262;6.802;2023-09-30T05:03:55;17.00;;;6.23;;
79371;SDS011;68914;51.262;6.802;2023-09-30T05:04:55;15.15;;;5.80;;
79371;SDS011;68914;51.262;6.802;2023-09-30T05:05:56;16.77;;;5.87;;
79371;SDS011;68914;51.262;6.802;2023-09-30T05:06:58;18.15;;;6.43;;
79371;SDS011;68914;51.262;6.802;2023-09-30T05:07:59;17.83;;;6.00;;
79371;SDS011;68914;51.262;6.802;2023-09-30T05:09:00;17.20;;;6.97;;
79371;SDS011;68914;51.262;6.802;2023-09-30T05:10:01;24.67;;;9.68;;
79371;SDS011;68914;51.262;6.802;2023-09-30T05:11:05;20.52;;;6.78;;
79371;SDS011;68914;51.262;6.802;2023-09-30T05:12:05;14.13;;;5.63;;
79371;SDS011;68914;51.262;6.802;2023-09-30T05:13:06;16.55;;;5.50;;
79371;SDS011;68914;51.262;6.802;2023-09-30T05:14:07;14.00;;;5.47;;
79371;SDS011;68914;51.262;6.802;2023-09-30T05:15:08;17.38;;;6.28;;
79371;SDS011;68914;51.262;6.802;2023-09-30T05:16:09;16.88;;;5.85;;
79371;SDS011;68914;51.262;6.802;2023-09-30T05:17:09;18.93;;;6.00;;
79371;SDS011;68914;51.262;6.802;2023-09-30T05:18:10;15.48;;;6.10;;
79371;SDS011;68914;51.262;6.802;2023-09-30T05:19:11;16.23;;;5.67;;
79371;SDS011;68914;51.262;6.802;2023-09-30T05:20:11;18.05;;;6.43;;
79371;SDS011;68914;51.262;6.802;2023-09-30T05:21:13;14.50;;;6.00;;
79371;SDS011;68914;51.262;6.802;2023-09-30T05:22:13;16.90;;;6.20;;
79371;SDS011;68914;51.262;6.802;2023-09-30T05:23:15;20.13;;;6.30;;
79371;SDS011;68914;51.262;6.802;2023-09-30T05:24:16;17.10;;;5.82;;
79371;SDS011;68914;51.262;6.802;2023-09-30T05:25:19;14.52;;;5.68;;
79371;SDS011;68914;51.262;6.802;2023-09-30T05:26:20;14.65;;;5.50;;
79371;SDS011;68914;51.262;6.802;2023-09-30T05:27:20;14.37;;;5.27;;
79371;SDS011;68914;51.262;6.802;2023-09-30T05:28:21;18.20;;;6.20;;
79371;SDS011;68914;51.262;6.802;2023-09-30T05:29:24;17.90;;;6.00;;
79371;SDS011;68914;51.262;6.802;2023-09-30T05:30:25;20.73;;;5.75;;
79371;SDS011;68914;51.262;6.802;2023-09-30T05:31:26;16.23;;;5.83;;
79371;SDS011;68914;51.262;6.802;2023-09-30T05:32:26;17.48;;;5.88;;
79371;SDS011;68914;51.262;6.802;2023-09-30T05:33:27;16.52;;;5.95;;
79371;SDS011;68914;51.262;6.802;2023-09-30T05:34:28;17.23;;;5.87;;
79371;SDS011;68914;51.262;6.802;2023-09-30T05:35:29;18.83;;;5.80;;
79371;SDS011;68914;51.262;6.802;2023-09-30T05:36:31;14.98;;;5.90;;
79371;SDS011;68914;51.262;6.802;2023-09-30T05:37:31;19.70;;;6.20;;
79371;SDS011;68914;51.262;6.802;2023-09-30T05:38:33;18.67;;;6.18;;
79371;SDS011;68914;51.262;6.802;2023-09-30T05:39:33;18.02;;;6.20;;
79371;SDS011;68914;51.262;6.802;2023-09-30T05:40:35;20.40;;;6.07;;
79371;SDS011;68914;51.262;6.802;2023-09-30T05:41:36;16.08;;;5.95;;
79371;SDS011;68914;51.262;6.802;2023-09-30T05:42:37;16.45;;;5.60;;
79371;SDS011;68914;51.262;6.802;2023-09-30T05:43:38;17.75;;;5.78;;
79371;SDS011;68914;51.262;6.802;2023-09-30T05:44:39;18.13;;;6.27;;
79371;SDS011;68914;51.262;6.802;2023-09-30T05:45:39;16.67;;;6.22;;
79371;SDS011;68914;51.262;6.802;2023-09-30T05:46:49;18.33;;;6.25;;
79371;SDS011;68914;51.262;6.802;2023-09-30T05:47:50;21.08;;;5.97;;
79371;SDS011;68914;51.262;6.802;2023-09-30T05:48:52;15.93;;;6.00;;
79371;SDS011;68914;51.262;6.802;2023-09-30T05:49:53;19.43;;;5.80;;
79371;SDS011;68914;51.262;6.802;2023-09-30T05:50:54;20.20;;;6.03;;
79371;SDS011;68914;51.262;6.802;2023-09-30T05:51:54;18.33;;;6.20;;
79371;SDS011;68914;51.262;6.802;2023-09-30T05:52:55;16.30;;;5.78;;
79371;SDS011;68914;51.262;6.802;2023-09-30T05:53:56;18.02;;;6.10;;
79371;SDS011;68914;51.262;6.802;2023-09-30T05:54:56;16.33;;;6.07;;
79371;SDS011;68914;51.262;6.802;2023-09-30T05:55:57;19.42;;;6.22;;
79371;SDS011;68914;51.262;6.802;2023-09-30T05:56:59;17.73;;;6.13;;
79371;SDS011;68914;51.262;6.802;2023-09-30T05:58:01;14.85;;;6.13;;
79371;SDS011;68914;51.262;6.802;2023-09-30T05:59:01;17.30;;;6.03;;
79371;SDS011;68914;51.262;6.802;2023-09-30T06:00:05;16.63;;;6.20;;
79371;SDS011;68914;51.262;6.802;2023-09-30T06:01:28;18.75;;;6.43;;
79371;SDS011;68914;51.262;6.802;2023-09-30T06:02:29;17.08;;;6.35;;
79371;SDS011;68914;51.262;6.802;2023-09-30T06:03:30;17.67;;;6.00;;
79371;SDS011;68914;51.262;6.802;2023-09-30T06:04:31;17.10;;;6.03;;
79371;SDS011;68914;51.262;6.802;2023-09-30T06:05:33;20.05;;;6.55;;
79371;SDS011;68914;51.262;6.802;2023-09-30T06:06:34;16.02;;;6.40;;
79371;SDS011;68914;51.262;6.802;2023-09-30T06:07:35;16.98;;;6.43;;